Flight Track Log - Related Links

Times and Time Zones

All times are in EDT time to prevent confusion due to time zone crossing. See the QXE2484 flight status page for this flight to view local times or setup timezone preferences in your user account.


Time Position Orientation Groundspeed Altitude Reporting Facility
EDT Latitude Longitude Course Direction KTS MPH feet Rate Location/Type
Sat 11:21:21 AM 47.4483 -122.3097 202° Southwest 126 145 1,000  Level Seattle Center
Sat 11:21:40 AM 47.4369 -122.3164 202° Southwest 123 142 2,200 3,075 Climbing Seattle Center
Sat 11:22:41 AM 47.4392 -122.3825 273° West 161 185 5,100 2,902 Climbing Seattle Center
Sat 11:23:42 AM 47.4492 -122.4531 282° West 176 203 8,100 2,361 Climbing Seattle Center
Sat 11:24:43 AM 47.5053 -122.4525 360° North 229 264 9,900 1,279 Climbing Seattle Center
Sat 11:25:44 AM 47.5853 -122.4194 16° North 299 344 10,700 893 Climbing Seattle Center
Sat 11:26:44 AM 47.6744 -122.3817 16° North 327 376 11,700 645 Climbing Seattle Center
Sat 11:27:45 AM 47.7664 -122.3406 17° North 341 392 12,000 148 Climbing Seattle Center
Sat 11:28:46 AM 47.8611 -122.3017 15° North 347 399 12,000  Level Seattle Center
Sat 11:29:47 AM 47.9531 -122.2822 North 343 395 12,000  Level Seattle Center
Sat 11:30:48 AM 48.0436 -122.3119 348° North 340 391 12,000  Level Seattle Center
Sat 11:31:48 AM 48.1344 -122.3403 348° North 338 389 12,000 -446 Level Seattle Center
Sat 11:32:49 AM 48.2239 -122.3669 349° North 331 381 11,100 -934 Descending Seattle Center
Sat 11:33:50 AM 48.3142 -122.3922 349° North 333 383 10,100 -590 Descending Seattle Center
Sat 11:34:51 AM 48.4000 -122.4167 349° North 319 367 9,900 -787 Descending Seattle Center
Sat 11:35:52 AM 48.4817 -122.4397 349° North 304 350 8,500 -1,426 Descending Seattle Center
Sat 11:36:53 AM 48.5711 -122.4681 348° North 284 327 7,000 -1,289 Descending Seattle Center
Sat 11:37:53 AM 48.6378 -122.4858 350° North 257 296 5,900 -1,240 Descending Seattle Center
Sat 11:38:54 AM 48.6953 -122.5228 337° Northwest 232 267 4,500 -1,328 Descending Seattle Center
Sat 11:39:55 AM 48.7494 -122.5581 337° Northwest 225 259 3,200 -1,279 Descending Seattle Center
Sat 11:40:56 AM 48.7989 -122.5889 338° Northwest 209 241 1,900 -1,279 Descending Seattle Center

Login

Don't have an account? Register now (free) for customized features, flight alerts, and more!